sensor_id;sensor_type;location;lat;lon;timestamp;pressure;altitude;pressure_sealevel;temperature;humidity
81379;BME280;70830;42.290;-71.354;2023-12-04T00:01:25;100123.44;;;6.03;82.43
81379;BME280;70830;42.290;-71.354;2023-12-04T00:03:52;100123.44;;;6.03;82.07
81379;BME280;70830;42.290;-71.354;2023-12-04T00:06:18;100133.94;;;6.01;82.42
81379;BME280;70830;42.290;-71.354;2023-12-04T00:08:44;100151.31;;;6.04;82.96
81379;BME280;70830;42.290;-71.354;2023-12-04T00:11:11;100165.22;;;6.06;82.69
81379;BME280;70830;42.290;-71.354;2023-12-04T00:13:37;100166.91;;;6.07;82.53
81379;BME280;70830;42.290;-71.354;2023-12-04T00:16:04;100152.03;;;6.09;82.72
81379;BME280;70830;42.290;-71.354;2023-12-04T00:18:32;100136.28;;;6.10;83.11
81379;BME280;70830;42.290;-71.354;2023-12-04T00:20:58;100131.84;;;6.12;83.32
81379;BME280;70830;42.290;-71.354;2023-12-04T00:23:24;100137.16;;;6.11;83.48
81379;BME280;70830;42.290;-71.354;2023-12-04T00:25:49;100130.97;;;6.13;83.58
81379;BME280;70830;42.290;-71.354;2023-12-04T00:28:15;100137.97;;;6.11;83.62
81379;BME280;70830;42.290;-71.354;2023-12-04T00:30:41;100146.84;;;6.07;83.16
81379;BME280;70830;42.290;-71.354;2023-12-04T00:33:07;100157.97;;;6.14;82.98
81379;BME280;70830;42.290;-71.354;2023-12-04T00:35:33;100180.63;;;6.15;82.81
81379;BME280;70830;42.290;-71.354;2023-12-04T00:37:59;100171.03;;;6.15;83.90
81379;BME280;70830;42.290;-71.354;2023-12-04T00:40:25;100150.09;;;6.15;83.34
81379;BME280;70830;42.290;-71.354;2023-12-04T00:42:51;100140.44;;;6.17;83.87
81379;BME280;70830;42.290;-71.354;2023-12-04T00:45:17;100127.22;;;6.20;83.61
81379;BME280;70830;42.290;-71.354;2023-12-04T00:47:43;100121.91;;;6.23;83.30
81379;BME280;70830;42.290;-71.354;2023-12-04T00:50:10;100125.47;;;6.21;83.50
81379;BME280;70830;42.290;-71.354;2023-12-04T00:52:36;100129.00;;;6.20;nan
81379;BME280;70830;42.290;-71.354;2023-12-04T00:55:02;100116.88;;;6.17;82.55
81379;BME280;70830;42.290;-71.354;2023-12-04T00:57:28;100116.81;;;6.19;83.61
81379;BME280;70830;42.290;-71.354;2023-12-04T00:59:54;100090.69;;;6.17;83.39
81379;BME280;70830;42.290;-71.354;2023-12-04T01:02:20;100067.09;;;6.19;83.18
81379;BME280;70830;42.290;-71.354;2023-12-04T01:04:46;100041.88;;;6.16;82.68
81379;BME280;70830;42.290;-71.354;2023-12-04T01:07:12;100054.84;;;6.19;83.13
81379;BME280;70830;42.290;-71.354;2023-12-04T01:09:38;100062.56;;;6.24;83.50
81379;BME280;70830;42.290;-71.354;2023-12-04T01:12:04;100059.06;;;6.23;83.22
81379;BME280;70830;42.290;-71.354;2023-12-04T01:14:30;100064.38;;;6.22;82.94
81379;BME280;70830;42.290;-71.354;2023-12-04T01:16:56;100065.19;;;6.24;82.65
81379;BME280;70830;42.290;-71.354;2023-12-04T01:19:22;100073.81;;;6.26;82.90
81379;BME280;70830;42.290;-71.354;2023-12-04T01:21:48;100065.81;;;6.30;82.94
81379;BME280;70830;42.290;-71.354;2023-12-04T01:24:15;100038.63;;;6.34;82.54
81379;BME280;70830;42.290;-71.354;2023-12-04T01:26:41;100034.03;;;6.41;83.83
81379;BME280;70830;42.290;-71.354;2023-12-04T01:29:07;100015.56;;;6.45;82.13
81379;BME280;70830;42.290;-71.354;2023-12-04T01:31:33;100004.03;;;6.51;83.75
81379;BME280;70830;42.290;-71.354;2023-12-04T01:34:00;99992.38;;;6.58;83.45
81379;BME280;70830;42.290;-71.354;2023-12-04T01:36:26;99991.41;;;6.62;82.19
81379;BME280;70830;42.290;-71.354;2023-12-04T01:38:52;99986.50;;;6.76;83.64
81379;BME280;70830;42.290;-71.354;2023-12-04T01:41:18;100002.81;;;6.84;83.69
81379;BME280;70830;42.290;-71.354;2023-12-04T01:43:45;100006.72;;;6.96;84.43
81379;BME280;70830;42.290;-71.354;2023-12-04T01:46:11;99995.97;;;7.03;83.10
81379;BME280;70830;42.290;-71.354;2023-12-04T01:48:38;100003.56;;;7.09;82.58
81379;BME280;70830;42.290;-71.354;2023-12-04T01:51:07;100003.38;;;7.15;82.99
81379;BME280;70830;42.290;-71.354;2023-12-04T01:53:36;100002.16;;;7.24;83.64
81379;BME280;70830;42.290;-71.354;2023-12-04T01:56:04;99998.56;;;7.26;83.48
81379;BME280;70830;42.290;-71.354;2023-12-04T01:58:31;100001.00;;;7.31;83.01
81379;BME280;70830;42.290;-71.354;2023-12-04T02:00:57;100005.25;;;7.33;82.66
81379;BME280;70830;42.290;-71.354;2023-12-04T02:03:23;100013.91;;;7.35;83.03
81379;BME280;70830;42.290;-71.354;2023-12-04T02:05:51;99997.22;;;7.38;82.70
81379;BME280;70830;42.290;-71.354;2023-12-04T02:08:18;99988.38;;;7.40;82.41
81379;BME280;70830;42.290;-71.354;2023-12-04T02:10:44;100006.63;;;7.44;82.83
81379;BME280;70830;42.290;-71.354;2023-12-04T02:13:10;100015.34;;;7.44;82.84
81379;BME280;70830;42.290;-71.354;2023-12-04T02:15:36;100007.34;;;7.47;82.43
81379;BME280;70830;42.290;-71.354;2023-12-04T02:18:03;99999.44;;;7.49;83.09
81379;BME280;70830;42.290;-71.354;2023-12-04T02:20:33;99987.13;;;7.51;82.76
81379;BME280;70830;42.290;-71.354;2023-12-04T02:23:03;99994.91;;;7.52;83.06
81379;BME280;70830;42.290;-71.354;2023-12-04T02:25:30;99992.38;;;7.51;82.49
81379;BME280;70830;42.290;-71.354;2023-12-04T02:27:59;99983.53;;;7.53;83.07
81379;BME280;70830;42.290;-71.354;2023-12-04T02:30:28;99981.72;;;7.54;83.02
81379;BME280;70830;42.290;-71.354;2023-12-04T02:32:57;99981.63;;;7.57;82.78
81379;BME280;70830;42.290;-71.354;2023-12-04T02:35:27;99966.84;;;7.54;82.32
81379;BME280;70830;42.290;-71.354;2023-12-04T02:37:55;99973.75;;;7.57;82.18
81379;BME280;70830;42.290;-71.354;2023-12-04T02:40:24;99968.63;;;7.54;82.31
81379;BME280;70830;42.290;-71.354;2023-12-04T02:42:51;99968.56;;;7.55;82.78
81379;BME280;70830;42.290;-71.354;2023-12-04T02:45:17;99960.63;;;7.57;82.38
81379;BME280;70830;42.290;-71.354;2023-12-04T02:47:43;99951.97;;;7.55;82.69
81379;BME280;70830;42.290;-71.354;2023-12-04T02:50:09;99952.88;;;7.54;82.24
81379;BME280;70830;42.290;-71.354;2023-12-04T02:52:35;99938.94;;;7.53;82.43
81379;BME280;70830;42.290;-71.354;2023-12-04T02:55:00;99932.94;;;7.50;82.69
81379;BME280;70830;42.290;-71.354;2023-12-04T02:57:26;99932.03;;;7.51;82.86
81379;BME280;70830;42.290;-71.354;2023-12-04T02:59:53;99938.94;;;7.53;82.55
81379;BME280;70830;42.290;-71.354;2023-12-04T03:02:18;99942.56;;;7.49;82.93
81379;BME280;70830;42.290;-71.354;2023-12-04T03:04:45;99951.97;;;7.55;82.63
81379;BME280;70830;42.290;-71.354;2023-12-04T03:07:11;99958.09;;;7.55;82.95
81379;BME280;70830;42.290;-71.354;2023-12-04T03:09:37;99947.59;;;7.55;82.48
81379;BME280;70830;42.290;-71.354;2023-12-04T03:12:03;99948.38;;;7.57;83.35
81379;BME280;70830;42.290;-71.354;2023-12-04T03:14:29;99949.34;;;7.55;82.12
81379;BME280;70830;42.290;-71.354;2023-12-04T03:16:55;99960.63;;;7.57;82.13
81379;BME280;70830;42.290;-71.354;2023-12-04T03:19:21;99953.66;;;7.56;82.52
81379;BME280;70830;42.290;-71.354;2023-12-04T03:21:47;99954.50;;;7.58;82.60
81379;BME280;70830;42.290;-71.354;2023-12-04T03:24:13;99950.84;;;7.60;83.00
81379;BME280;70830;42.290;-71.354;2023-12-04T03:26:40;99952.59;;;7.61;82.88
81379;BME280;70830;42.290;-71.354;2023-12-04T03:29:06;99947.25;;;7.63;82.68
81379;BME280;70830;42.290;-71.354;2023-12-04T03:31:32;99956.78;;;7.65;82.57
81379;BME280;70830;42.290;-71.354;2023-12-04T03:33:59;99962.88;;;7.66;83.16
81379;BME280;70830;42.290;-71.354;2023-12-04T03:36:25;99955.91;;;7.65;83.31
81379;BME280;70830;42.290;-71.354;2023-12-04T03:38:51;99954.94;;;7.67;82.92
81379;BME280;70830;42.290;-71.354;2023-12-04T03:41:17;99955.88;;;7.66;82.30
81379;BME280;70830;42.290;-71.354;2023-12-04T03:43:43;99956.72;;;7.67;81.69
81379;BME280;70830;42.290;-71.354;2023-12-04T03:46:09;99949.66;;;7.69;82.32
81379;BME280;70830;42.290;-71.354;2023-12-04T03:48:35;99919.97;;;7.67;81.91
81379;BME280;70830;42.290;-71.354;2023-12-04T03:51:01;99926.09;;;7.67;82.31
81379;BME280;70830;42.290;-71.354;2023-12-04T03:53:27;99928.00;;;7.64;81.68
81379;BME280;70830;42.290;-71.354;2023-12-04T03:55:53;99940.13;;;7.66;81.78
81379;BME280;70830;42.290;-71.354;2023-12-04T03:58:19;99924.44;;;7.65;82.45
81379;BME280;70830;42.290;-71.354;2023-12-04T04:00:45;99928.78;;;7.66;82.65
81379;BME280;70830;42.290;-71.354;2023-12-04T04:03:11;99933.16;;;7.65;82.40
81379;BME280;70830;42.290;-71.354;2023-12-04T04:05:36;99928.84;;;7.64;82.52
81379;BME280;70830;42.290;-71.354;2023-12-04T04:08:03;99926.16;;;7.66;82.20
81379;BME280;70830;42.290;-71.354;2023-12-04T04:10:30;99922.59;;;7.67;83.08
81379;BME280;70830;42.290;-71.354;2023-12-04T04:12:57;99914.88;;;7.64;81.67
81379;BME280;70830;42.290;-71.354;2023-12-04T04:15:23;99921.03;;;7.63;82.33
81379;BME280;70830;42.290;-71.354;2023-12-04T04:17:49;99923.81;;;7.60;82.74
81379;BME280;70830;42.290;-71.354;2023-12-04T04:20:15;99928.97;;;7.61;81.93
81379;BME280;70830;42.290;-71.354;2023-12-04T04:22:41;99931.59;;;7.61;82.22
81379;BME280;70830;42.290;-71.354;2023-12-04T04:25:07;99916.84;;;7.59;81.66
81379;BME280;70830;42.290;-71.354;2023-12-04T04:27:33;99926.41;;;7.60;82.51
81379;BME280;70830;42.290;-71.354;2023-12-04T04:29:59;99924.69;;;7.59;82.11
81379;BME280;70830;42.290;-71.354;2023-12-04T04:32:25;99921.97;;;7.62;82.58
81379;BME280;70830;42.290;-71.354;2023-12-04T04:34:51;99921.97;;;7.62;82.39
81379;BME280;70830;42.290;-71.354;2023-12-04T04:37:17;99925.38;;;7.64;82.54
81379;BME280;70830;42.290;-71.354;2023-12-04T04:39:43;99915.66;;;7.66;82.26
81379;BME280;70830;42.290;-71.354;2023-12-04T04:42:08;99902.56;;;7.66;82.32
81379;BME280;70830;42.290;-71.354;2023-12-04T04:44:34;99895.59;;;7.65;82.33
81379;BME280;70830;42.290;-71.354;2023-12-04T04:47:00;99904.31;;;7.65;82.40
81379;BME280;70830;42.290;-71.354;2023-12-04T04:49:26;99906.03;;;7.66;82.15
81379;BME280;70830;42.290;-71.354;2023-12-04T04:51:52;99905.06;;;7.69;82.52
81379;BME280;70830;42.290;-71.354;2023-12-04T04:54:18;99909.38;;;7.70;82.06
81379;BME280;70830;42.290;-71.354;2023-12-04T04:56:44;99904.13;;;7.70;82.38
81379;BME280;70830;42.290;-71.354;2023-12-04T04:59:09;99903.22;;;7.71;82.85
81379;BME280;70830;42.290;-71.354;2023-12-04T05:01:38;99898.88;;;7.70;82.72
81379;BME280;70830;42.290;-71.354;2023-12-04T05:04:04;99902.28;;;7.72;82.28
81379;BME280;70830;42.290;-71.354;2023-12-04T05:06:30;99912.66;;;7.75;82.14
81379;BME280;70830;42.290;-71.354;2023-12-04T05:08:56;99912.66;;;7.75;82.54
81379;BME280;70830;42.290;-71.354;2023-12-04T05:11:22;99915.22;;;7.76;82.54
81379;BME280;70830;42.290;-71.354;2023-12-04T05:13:49;99900.41;;;7.75;82.52
81379;BME280;70830;42.290;-71.354;2023-12-04T05:16:15;99884.97;;;7.68;80.79
81379;BME280;70830;42.290;-71.354;2023-12-04T05:18:41;99869.69;;;7.57;81.00
81379;BME280;70830;42.290;-71.354;2023-12-04T05:21:10;99865.88;;;7.44;80.11
81379;BME280;70830;42.290;-71.354;2023-12-04T05:23:37;99871.53;;;7.33;81.18
81379;BME280;70830;42.290;-71.354;2023-12-04T05:26:04;99864.13;;;7.23;80.78
81379;BME280;70830;42.290;-71.354;2023-12-04T05:28:30;99867.84;;;7.17;80.77
81379;BME280;70830;42.290;-71.354;2023-12-04T05:30:56;99861.16;;;7.10;81.19
81379;BME280;70830;42.290;-71.354;2023-12-04T05:33:22;99864.91;;;7.03;80.48
81379;BME280;70830;42.290;-71.354;2023-12-04T05:35:48;99859.19;;;6.94;80.88
81379;BME280;70830;42.290;-71.354;2023-12-04T05:38:16;99863.00;;;6.85;81.16
81379;BME280;70830;42.290;-71.354;2023-12-04T05:40:42;99876.47;;;6.76;81.11
81379;BME280;70830;42.290;-71.354;2023-12-04T05:43:08;99876.16;;;6.62;80.53
81379;BME280;70830;42.290;-71.354;2023-12-04T05:45:34;99888.44;;;6.60;81.59
81379;BME280;70830;42.290;-71.354;2023-12-04T05:48:00;99886.91;;;6.54;81.24
81379;BME280;70830;42.290;-71.354;2023-12-04T05:50:26;99886.28;;;6.48;80.79
81379;BME280;70830;42.290;-71.354;2023-12-04T05:52:52;99875.28;;;6.38;80.24
81379;BME280;70830;42.290;-71.354;2023-12-04T05:55:18;99870.34;;;6.31;80.91
81379;BME280;70830;42.290;-71.354;2023-12-04T05:57:44;99878.47;;;6.23;80.32
81379;BME280;70830;42.290;-71.354;2023-12-04T06:00:10;99866.81;;;6.09;80.33
81379;BME280;70830;42.290;-71.354;2023-12-04T06:02:39;99874.03;;;6.02;80.69
81379;BME280;70830;42.290;-71.354;2023-12-04T06:05:08;99871.50;;;5.99;80.98
81379;BME280;70830;42.290;-71.354;2023-12-04T06:07:35;99880.25;;;5.98;81.08
81379;BME280;70830;42.290;-71.354;2023-12-04T06:10:02;99881.72;;;5.80;80.75
81379;BME280;70830;42.290;-71.354;2023-12-04T06:12:30;99898.69;;;5.69;80.75
81379;BME280;70830;42.290;-71.354;2023-12-04T06:14:56;99902.59;;;5.56;81.53
81379;BME280;70830;42.290;-71.354;2023-12-04T06:17:24;99913.34;;;5.48;81.82
81379;BME280;70830;42.290;-71.354;2023-12-04T06:19:49;99909.13;;;5.44;81.46
81379;BME280;70830;42.290;-71.354;2023-12-04T06:22:16;99916.19;;;5.41;80.98
81379;BME280;70830;42.290;-71.354;2023-12-04T06:24:44;99926.63;;;5.41;81.72
81379;BME280;70830;42.290;-71.354;2023-12-04T06:27:16;99919.88;;;5.35;81.29
81379;BME280;70830;42.290;-71.354;2023-12-04T06:29:44;99935.56;;;5.34;82.25
81379;BME280;70830;42.290;-71.354;2023-12-04T06:32:11;99939.25;;;5.28;82.06
81379;BME280;70830;42.290;-71.354;2023-12-04T06:34:37;99940.16;;;5.27;81.76
81379;BME280;70830;42.290;-71.354;2023-12-04T06:37:06;99941.06;;;5.26;82.17
81379;BME280;70830;42.290;-71.354;2023-12-04T06:39:35;99943.69;;;5.26;81.75
81379;BME280;70830;42.290;-71.354;2023-12-04T06:42:03;99929.00;;;5.22;81.59
81379;BME280;70830;42.290;-71.354;2023-12-04T06:44:29;99929.00;;;5.22;81.19
81379;BME280;70830;42.290;-71.354;2023-12-04T06:46:59;99923.00;;;5.18;82.21
81379;BME280;70830;42.290;-71.354;2023-12-04T06:49:29;99929.09;;;5.19;81.03
81379;BME280;70830;42.290;-71.354;2023-12-04T06:51:55;99942.16;;;5.19;81.77
81379;BME280;70830;42.290;-71.354;2023-12-04T06:54:21;99936.13;;;5.17;80.87
81379;BME280;70830;42.290;-71.354;2023-12-04T06:56:47;99932.72;;;5.15;81.45
81379;BME280;70830;42.290;-71.354;2023-12-04T06:59:13;99923.19;;;5.12;81.60
81379;BME280;70830;42.290;-71.354;2023-12-04T07:01:39;99938.97;;;5.09;81.22
81379;BME280;70830;42.290;-71.354;2023-12-04T07:04:05;99947.84;;;5.04;80.35
81379;BME280;70830;42.290;-71.354;2023-12-04T07:06:41;99947.13;;;4.99;81.05
81379;BME280;70830;42.290;-71.354;2023-12-04T07:09:07;99947.13;;;4.99;81.48
81379;BME280;70830;42.290;-71.354;2023-12-04T07:11:35;99938.63;;;4.92;80.90
81379;BME280;70830;42.290;-71.354;2023-12-04T07:14:01;99936.97;;;4.90;81.24
81379;BME280;70830;42.290;-71.354;2023-12-04T07:16:27;99931.81;;;4.87;81.71
81379;BME280;70830;42.290;-71.354;2023-12-04T07:18:53;99919.69;;;4.86;81.29
81379;BME280;70830;42.290;-71.354;2023-12-04T07:21:19;99913.53;;;4.87;81.70
81379;BME280;70830;42.290;-71.354;2023-12-04T07:23:45;99920.47;;;4.88;80.74
81379;BME280;70830;42.290;-71.354;2023-12-04T07:26:11;99921.44;;;4.85;81.15
81379;BME280;70830;42.290;-71.354;2023-12-04T07:28:37;99916.28;;;4.82;80.75
81379;BME280;70830;42.290;-71.354;2023-12-04T07:31:03;99925.91;;;4.82;81.49
81379;BME280;70830;42.290;-71.354;2023-12-04T07:33:29;99922.56;;;4.77;81.09
81379;BME280;70830;42.290;-71.354;2023-12-04T07:35:55;99924.50;;;4.70;80.89
81379;BME280;70830;42.290;-71.354;2023-12-04T07:38:22;99927.97;;;4.71;81.34
81379;BME280;70830;42.290;-71.354;2023-12-04T07:40:47;99915.00;;;4.68;81.02
81379;BME280;70830;42.290;-71.354;2023-12-04T07:43:13;99925.44;;;4.68;81.38
81379;BME280;70830;42.290;-71.354;2023-12-04T07:45:43;99925.44;;;4.68;81.01
81379;BME280;70830;42.290;-71.354;2023-12-04T07:48:09;99924.69;;;4.64;80.96
81379;BME280;70830;42.290;-71.354;2023-12-04T07:50:35;99929.00;;;4.65;81.46
81379;BME280;70830;42.290;-71.354;2023-12-04T07:53:03;99910.81;;;4.62;80.55
81379;BME280;70830;42.290;-71.354;2023-12-04T07:55:29;99919.53;;;4.61;81.28
81379;BME280;70830;42.290;-71.354;2023-12-04T07:57:55;99929.03;;;4.64;81.53
81379;BME280;70830;42.290;-71.354;2023-12-04T08:00:21;99934.16;;;4.67;81.44
81379;BME280;70830;42.290;-71.354;2023-12-04T08:02:48;99923.78;;;4.65;81.47
81379;BME280;70830;42.290;-71.354;2023-12-04T08:05:14;99933.28;;;4.68;81.20
81379;BME280;70830;42.290;-71.354;2023-12-04T08:07:40;99916.84;;;4.64;80.99
81379;BME280;70830;42.290;-71.354;2023-12-04T08:10:06;99928.09;;;4.66;80.90
81379;BME280;70830;42.290;-71.354;2023-12-04T08:12:32;99929.84;;;4.66;81.14
81379;BME280;70830;42.290;-71.354;2023-12-04T08:14:59;99930.78;;;4.63;80.89
81379;BME280;70830;42.290;-71.354;2023-12-04T08:17:27;99934.34;;;4.61;80.53
81379;BME280;70830;42.290;-71.354;2023-12-04T08:19:53;99944.78;;;4.61;80.34
81379;BME280;70830;42.290;-71.354;2023-12-04T08:22:19;99941.44;;;4.56;80.57
81379;BME280;70830;42.290;-71.354;2023-12-04T08:24:45;99952.03;;;4.51;80.86
81379;BME280;70830;42.290;-71.354;2023-12-04T08:27:11;99932.91;;;4.51;80.44
81379;BME280;70830;42.290;-71.354;2023-12-04T08:29:39;99933.00;;;4.47;81.18
81379;BME280;70830;42.290;-71.354;2023-12-04T08:32:06;99940.75;;;4.51;80.97
81379;BME280;70830;42.290;-71.354;2023-12-04T08:34:32;99922.56;;;4.47;80.65
81379;BME280;70830;42.290;-71.354;2023-12-04T08:36:58;99919.13;;;4.45;80.57
81379;BME280;70830;42.290;-71.354;2023-12-04T08:39:24;99914.84;;;4.43;81.16
81379;BME280;70830;42.290;-71.354;2023-12-04T08:41:50;99908.75;;;4.44;81.25
81379;BME280;70830;42.290;-71.354;2023-12-04T08:44:15;99921.88;;;4.41;80.62
81379;BME280;70830;42.290;-71.354;2023-12-04T08:46:43;99935.78;;;4.41;80.58
81379;BME280;70830;42.290;-71.354;2023-12-04T08:49:09;99940.94;;;4.43;81.04
81379;BME280;70830;42.290;-71.354;2023-12-04T08:51:35;99931.38;;;4.43;80.94
81379;BME280;70830;42.290;-71.354;2023-12-04T08:54:01;99942.69;;;4.44;80.38
81379;BME280;70830;42.290;-71.354;2023-12-04T08:56:28;99946.09;;;4.46;80.31
81379;BME280;70830;42.290;-71.354;2023-12-04T08:58:55;99943.63;;;4.40;80.75
81379;BME280;70830;42.290;-71.354;2023-12-04T09:01:21;99953.19;;;4.41;80.93
81379;BME280;70830;42.290;-71.354;2023-12-04T09:03:46;99943.59;;;4.41;81.39
81379;BME280;70830;42.290;-71.354;2023-12-04T09:06:12;99949.69;;;4.42;80.90
81379;BME280;70830;42.290;-71.354;2023-12-04T09:08:40;99957.41;;;4.47;81.25
81379;BME280;70830;42.290;-71.354;2023-12-04T09:11:06;99956.44;;;4.49;81.13
81379;BME280;70830;42.290;-71.354;2023-12-04T09:13:32;99954.69;;;4.50;81.23
81379;BME280;70830;42.290;-71.354;2023-12-04T09:15:59;99939.94;;;4.49;80.56
81379;BME280;70830;42.290;-71.354;2023-12-04T09:18:25;99932.13;;;4.47;80.94
81379;BME280;70830;42.290;-71.354;2023-12-04T09:20:51;99933.78;;;4.50;80.76
81379;BME280;70830;42.290;-71.354;2023-12-04T09:23:17;99925.09;;;4.49;81.27
81379;BME280;70830;42.290;-71.354;2023-12-04T09:25:43;99924.97;;;4.54;80.94
81379;BME280;70830;42.290;-71.354;2023-12-04T09:28:09;99908.50;;;4.52;80.85
81379;BME280;70830;42.290;-71.354;2023-12-04T09:30:36;99897.22;;;4.51;80.64
81379;BME280;70830;42.290;-71.354;2023-12-04T09:33:02;99904.09;;;4.54;80.32
81379;BME280;70830;42.290;-71.354;2023-12-04T09:35:28;99896.44;;;4.47;80.76
81379;BME280;70830;42.290;-71.354;2023-12-04T09:37:54;99925.09;;;4.49;80.37
81379;BME280;70830;42.290;-71.354;2023-12-04T09:40:20;99913.19;;;4.40;80.66
81379;BME280;70830;42.290;-71.354;2023-12-04T09:42:46;99920.25;;;4.37;81.26
81379;BME280;70830;42.290;-71.354;2023-12-04T09:45:12;99921.13;;;4.36;80.49
81379;BME280;70830;42.290;-71.354;2023-12-04T09:47:39;99926.34;;;4.37;80.88
81379;BME280;70830;42.290;-71.354;2023-12-04T09:50:06;99933.28;;;4.37;80.30
81379;BME280;70830;42.290;-71.354;2023-12-04T09:52:34;99935.91;;;4.37;81.14
81379;BME280;70830;42.290;-71.354;2023-12-04T09:55:01;99924.53;;;4.39;81.61
81379;BME280;70830;42.290;-71.354;2023-12-04T09:57:27;99931.44;;;4.42;81.14
81379;BME280;70830;42.290;-71.354;2023-12-04T09:59:53;99946.16;;;4.43;80.58
81379;BME280;70830;42.290;-71.354;2023-12-04T10:02:20;99952.25;;;4.43;81.08
81379;BME280;70830;42.290;-71.354;2023-12-04T10:04:47;99947.03;;;4.43;81.04
81379;BME280;70830;42.290;-71.354;2023-12-04T10:07:13;99954.91;;;4.42;81.35
81379;BME280;70830;42.290;-71.354;2023-12-04T10:09:39;99958.34;;;4.42;81.02
81379;BME280;70830;42.290;-71.354;2023-12-04T10:12:06;99961.78;;;4.44;81.18
81379;BME280;70830;42.290;-71.354;2023-12-04T10:14:32;99960.81;;;4.49;81.23
81379;BME280;70830;42.290;-71.354;2023-12-04T10:16:57;99972.06;;;4.51;80.61
81379;BME280;70830;42.290;-71.354;2023-12-04T10:19:27;99985.13;;;4.51;80.60
81379;BME280;70830;42.290;-71.354;2023-12-04T10:21:55;99994.75;;;4.47;80.69
81379;BME280;70830;42.290;-71.354;2023-12-04T10:26:59;99994.88;;;4.44;81.43
81379;BME280;70830;42.290;-71.354;2023-12-04T10:29:28;100000.09;;;4.44;80.73
81379;BME280;70830;42.290;-71.354;2023-12-04T10:31:58;100003.53;;;4.44;80.99
81379;BME280;70830;42.290;-71.354;2023-12-04T10:34:25;100020.09;;;4.43;81.12
81379;BME280;70830;42.290;-71.354;2023-12-04T10:36:52;100024.47;;;4.43;80.88
81379;BME280;70830;42.290;-71.354;2023-12-04T10:39:18;100027.13;;;4.41;80.91
81379;BME280;70830;42.290;-71.354;2023-12-04T10:41:44;100032.47;;;4.37;80.56
81379;BME280;70830;42.290;-71.354;2023-12-04T10:44:16;100038.56;;;4.36;80.63
81379;BME280;70830;42.290;-71.354;2023-12-04T10:46:45;100044.56;;;4.39;81.34
81379;BME280;70830;42.290;-71.354;2023-12-04T10:49:13;100057.56;;;4.41;80.40
81379;BME280;70830;42.290;-71.354;2023-12-04T10:51:39;100049.78;;;4.39;80.94
81379;BME280;70830;42.290;-71.354;2023-12-04T10:54:06;100049.81;;;4.38;81.00
81379;BME280;70830;42.290;-71.354;2023-12-04T10:56:38;100057.50;;;4.44;80.76
81379;BME280;70830;42.290;-71.354;2023-12-04T10:59:11;100060.94;;;4.44;81.35
81379;BME280;70830;42.290;-71.354;2023-12-04T11:01:42;100061.81;;;4.45;81.24
81379;BME280;70830;42.290;-71.354;2023-12-04T11:04:14;100052.28;;;4.44;81.34
81379;BME280;70830;42.290;-71.354;2023-12-04T11:06:45;100052.22;;;4.45;80.96
81379;BME280;70830;42.290;-71.354;2023-12-04T11:09:11;100054.84;;;4.45;81.29
81379;BME280;70830;42.290;-71.354;2023-12-04T11:11:40;100071.31;;;4.47;80.84
81379;BME280;70830;42.290;-71.354;2023-12-04T11:14:13;100069.56;;;4.48;80.26
81379;BME280;70830;42.290;-71.354;2023-12-04T11:16:46;100083.44;;;4.50;80.65
81379;BME280;70830;42.290;-71.354;2023-12-04T11:19:55;100082.66;;;4.47;81.00
81379;BME280;70830;42.290;-71.354;2023-12-04T11:22:25;100094.06;;;4.42;80.52
81379;BME280;70830;42.290;-71.354;2023-12-04T11:24:51;100088.00;;;4.42;81.05
81379;BME280;70830;42.290;-71.354;2023-12-04T11:27:18;100095.91;;;4.39;80.14
81379;BME280;70830;42.290;-71.354;2023-12-04T11:29:48;100095.97;;;4.36;80.47
81379;BME280;70830;42.290;-71.354;2023-12-04T11:32:17;100109.00;;;4.37;80.43
81379;BME280;70830;42.290;-71.354;2023-12-04T11:35:06;100103.78;;;4.36;80.69
81379;BME280;70830;42.290;-71.354;2023-12-04T11:37:37;100104.72;;;4.33;81.07
81379;BME280;70830;42.290;-71.354;2023-12-04T11:40:03;100104.72;;;4.35;81.04
81379;BME280;70830;42.290;-71.354;2023-12-04T11:42:30;100091.69;;;4.33;80.69
81379;BME280;70830;42.290;-71.354;2023-12-04T11:44:57;100100.25;;;4.38;81.10
81379;BME280;70830;42.290;-71.354;2023-12-04T11:47:28;100095.94;;;4.37;80.83
81379;BME280;70830;42.290;-71.354;2023-12-04T11:49:54;100096.06;;;4.33;81.23
81379;BME280;70830;42.290;-71.354;2023-12-04T11:52:32;100097.75;;;4.35;80.82
81379;BME280;70830;42.290;-71.354;2023-12-04T11:55:01;100098.63;;;4.34;81.42
81379;BME280;70830;42.290;-71.354;2023-12-04T11:57:38;100100.34;;;4.35;81.59
81379;BME280;70830;42.290;-71.354;2023-12-04T12:00:10;100111.84;;;4.28;80.96
81379;BME280;70830;42.290;-71.354;2023-12-04T12:03:01;100112.81;;;4.24;80.91
81379;BME280;70830;42.290;-71.354;2023-12-04T12:05:32;100119.66;;;4.28;80.93
81379;BME280;70830;42.290;-71.354;2023-12-04T12:08:02;100121.34;;;4.31;81.78
81379;BME280;70830;42.290;-71.354;2023-12-04T12:10:29;100118.69;;;4.32;81.86
81379;BME280;70830;42.290;-71.354;2023-12-04T12:12:56;100120.38;;;4.35;81.07
81379;BME280;70830;42.290;-71.354;2023-12-04T12:15:22;100126.44;;;4.35;81.76
81379;BME280;70830;42.290;-71.354;2023-12-04T12:17:49;100132.50;;;4.36;81.27
81379;BME280;70830;42.290;-71.354;2023-12-04T12:20:18;100142.09;;;4.35;81.50
81379;BME280;70830;42.290;-71.354;2023-12-04T12:22:47;100148.97;;;4.38;81.23
81379;BME280;70830;42.290;-71.354;2023-12-04T12:25:14;100152.41;;;4.40;81.07
81379;BME280;70830;42.290;-71.354;2023-12-04T12:27:40;100142.00;;;4.38;81.15
81379;BME280;70830;42.290;-71.354;2023-12-04T12:30:07;100149.84;;;4.38;81.32
81379;BME280;70830;42.290;-71.354;2023-12-04T12:32:35;100146.34;;;4.39;81.70
81379;BME280;70830;42.290;-71.354;2023-12-04T12:35:03;100136.78;;;4.38;81.65
81379;BME280;70830;42.290;-71.354;2023-12-04T12:37:29;100134.06;;;4.43;81.42
81379;BME280;70830;42.290;-71.354;2023-12-04T12:39:57;100142.59;;;4.51;81.62
81379;BME280;70830;42.290;-71.354;2023-12-04T12:42:29;100148.53;;;4.56;81.08
81379;BME280;70830;42.290;-71.354;2023-12-04T12:44:55;100138.91;;;4.58;81.53
81379;BME280;70830;42.290;-71.354;2023-12-04T12:47:25;100147.53;;;4.62;81.56
81379;BME280;70830;42.290;-71.354;2023-12-04T12:49:52;100141.38;;;4.63;81.09